createdAt,value
2022-08-07T08:29:23.130Z,25.48
2022-08-07T08:31:58.789Z,43.87
2022-08-07T08:34:45.798Z,43.78
2022-08-07T08:38:01.362Z,47.20
2022-08-07T08:40:38.776Z,37.05
2022-08-07T08:46:26.660Z,13.10
2022-08-07T08:52:20.674Z,7.55
2022-08-07T08:54:57.193Z,5.10
2022-08-07T08:57:37.471Z,6.80
2022-08-07T09:00:09.374Z,4.70
2022-08-07T09:02:57.649Z,5.93
2022-08-07T09:06:10.540Z,5.80
2022-08-07T09:09:02.809Z,7.70
2022-08-07T09:12:31.361Z,9.85
2022-08-07T09:16:20.695Z,8.23
2022-08-07T09:19:44.765Z,8.55
2022-08-07T09:28:00.436Z,10.77
2022-08-07T09:33:57.493Z,10.50
2022-08-07T09:36:37.349Z,6.55
2022-08-07T09:42:56.461Z,7.20
2022-08-07T09:47:51.141Z,5.72
2022-08-07T09:50:55.075Z,5.90
2022-08-07T09:53:23.951Z,5.72
2022-08-07T10:02:55.691Z,6.32
2022-08-07T10:07:03.434Z,5.25
2022-08-07T10:10:00.640Z,7.37
2022-08-07T10:13:10.932Z,7.05
2022-08-07T10:18:37.570Z,5.80
2022-08-07T10:22:12.633Z,7.70
2022-08-07T10:25:42.772Z,7.95
2022-08-07T10:35:25.430Z,5.93
2022-08-07T10:38:35.716Z,9.30
2022-08-07T10:42:57.618Z,7.47
2022-08-07T10:45:44.964Z,5.43
2022-08-07T10:48:50.859Z,6.90
2022-08-07T10:51:39.303Z,9.30
2022-08-07T10:57:43.479Z,9.90
2022-08-07T11:00:39.735Z,7.85
2022-08-07T11:03:15.199Z,10.13
2022-08-07T11:05:55.803Z,14.52
2022-08-07T11:08:41.401Z,12.05
2022-08-07T11:11:25.618Z,12.93
2022-08-07T11:14:45.363Z,11.32
2022-08-07T11:17:46.205Z,9.70
2022-08-07T11:25:06.858Z,10.60
2022-08-07T11:28:08.888Z,6.68
2022-08-07T11:34:30.207Z,8.88
2022-08-07T11:39:58.834Z,7.87
2022-08-07T11:42:49.259Z,7.07
2022-08-07T11:53:36.728Z,7.10
2022-08-07T11:56:34.276Z,7.03
2022-08-07T12:00:28.319Z,7.95
2022-08-07T12:03:44.874Z,7.43
2022-08-07T12:07:39.867Z,8.00
2022-08-07T12:12:52.002Z,7.90
2022-08-07T12:15:35.664Z,9.88
2022-08-07T12:18:29.763Z,11.93
2022-08-07T12:21:21.171Z,12.10
2022-08-07T12:26:05.311Z,7.00
2022-08-07T12:29:37.594Z,7.82
2022-08-07T12:32:34.821Z,9.00
2022-08-07T12:35:08.211Z,9.13
2022-08-07T12:38:08.943Z,13.85
2022-08-07T12:40:48.538Z,13.35
2022-08-07T12:44:03.873Z,16.20
2022-08-07T12:46:41.962Z,11.68
2022-08-07T12:49:48.753Z,12.13
2022-08-07T12:52:48.882Z,11.68
2022-08-07T12:55:40.681Z,13.35
2022-08-07T12:58:14.773Z,15.63
2022-08-07T13:01:53.731Z,16.48
2022-08-07T13:05:01.432Z,15.45
2022-08-07T13:10:59.235Z,15.10
2022-08-07T13:17:41.123Z,10.20
2022-08-07T13:20:18.702Z,14.48
2022-08-07T13:24:00.947Z,14.73
2022-08-07T13:26:46.581Z,17.70
2022-08-07T13:30:53.123Z,8.35
2022-08-07T13:34:32.180Z,9.77
2022-08-07T13:37:10.844Z,14.18
2022-08-07T13:40:35.612Z,12.00
2022-08-07T13:43:12.182Z,12.07
2022-08-07T13:46:21.851Z,10.10
2022-08-07T13:48:58.566Z,9.57
2022-08-07T13:51:28.270Z,11.45
2022-08-07T13:54:49.745Z,9.05
2022-08-07T13:57:26.632Z,9.05
2022-08-07T14:00:07.415Z,10.52
2022-08-07T14:02:45.736Z,12.95
2022-08-07T14:05:21.269Z,11.65
2022-08-07T14:08:00.477Z,13.15
2022-08-07T14:10:34.067Z,10.35
2022-08-07T14:13:09.797Z,12.02
2022-08-07T14:15:40.266Z,11.30
2022-08-07T14:18:28.463Z,9.88
2022-08-07T14:22:00.573Z,10.63
2022-08-07T14:24:41.534Z,12.48
2022-08-07T14:28:09.805Z,11.95
2022-08-07T14:30:40.548Z,16.15
2022-08-07T14:33:07.118Z,15.40
2022-08-07T14:35:44.814Z,16.37
2022-08-07T14:38:26.564Z,15.63
2022-08-07T14:41:00.735Z,14.65
2022-08-07T14:43:57.811Z,16.08
2022-08-07T15:54:40.633Z,5.03
2022-08-07T15:57:28.000Z,5.93
2022-08-07T16:00:32.157Z,6.85
2022-08-07T16:03:21.623Z,7.20
2022-08-07T16:06:13.127Z,7.55
2022-08-07T16:08:45.620Z,6.72
2022-08-07T16:18:14.374Z,6.85
2022-08-07T16:22:02.228Z,6.32
2022-08-07T16:24:40.211Z,6.97
2022-08-07T16:27:26.611Z,6.78
2022-08-07T16:30:32.021Z,6.32
2022-08-07T16:34:02.435Z,6.87
2022-08-07T16:40:02.234Z,6.62
2022-08-07T16:43:00.465Z,6.50
2022-08-07T16:46:33.018Z,7.18
2022-08-07T16:56:21.780Z,6.95
2022-08-07T17:00:29.901Z,5.30
2022-08-07T17:04:57.750Z,6.45
2022-08-07T17:07:55.345Z,6.05
2022-08-07T17:10:59.959Z,7.60
2022-08-07T17:14:17.438Z,7.20
2022-08-07T17:16:56.861Z,4.60
2022-08-07T17:20:02.567Z,4.20
2022-08-07T17:24:23.500Z,3.80
2022-08-07T17:27:07.696Z,3.90
2022-08-07T17:30:20.048Z,3.90
2022-08-07T17:34:09.427Z,3.50
2022-08-07T17:36:58.402Z,3.60
2022-08-07T17:40:03.133Z,3.78
2022-08-07T17:42:59.137Z,3.97
2022-08-07T17:45:32.158Z,3.50
2022-08-07T17:48:10.407Z,3.92
2022-08-07T17:52:00.156Z,4.22
2022-08-07T17:54:53.767Z,5.20
2022-08-07T17:57:58.955Z,6.32
2022-08-07T18:00:34.121Z,7.20
2022-08-07T18:03:28.284Z,6.12
2022-08-07T18:06:46.201Z,6.00
2022-08-07T18:10:05.641Z,4.80
2022-08-07T18:13:15.431Z,4.15
2022-08-07T18:16:09.983Z,5.65
2022-08-07T18:21:04.279Z,6.40
2022-08-07T18:24:33.364Z,5.85
2022-08-07T18:30:31.440Z,6.53
2022-08-07T18:36:16.710Z,8.18
2022-08-07T18:40:07.166Z,8.77
2022-08-07T18:42:45.243Z,5.85
2022-08-07T18:45:43.219Z,4.03
2022-08-07T18:52:53.921Z,4.03
2022-08-07T18:56:58.367Z,3.75
2022-08-07T19:00:34.545Z,5.25
2022-08-07T19:04:00.260Z,5.30
2022-08-07T19:08:32.090Z,5.05
2022-08-07T19:11:34.946Z,5.57
2022-08-07T19:17:06.778Z,4.30
2022-08-07T19:20:29.595Z,3.90
2022-08-07T19:23:18.220Z,2.95
2022-08-07T19:26:23.812Z,2.70
2022-08-07T19:30:56.319Z,2.65
2022-08-07T19:33:35.193Z,2.67
2022-08-07T19:36:04.990Z,3.08
2022-08-07T19:38:36.019Z,3.72
2022-08-07T19:41:44.436Z,4.45
2022-08-07T19:44:21.761Z,4.30
2022-08-07T19:46:55.250Z,3.72
2022-08-07T19:49:56.433Z,62.65
2022-08-07T19:52:25.664Z,4.25
2022-08-07T19:54:56.497Z,5.35
2022-08-07T19:58:01.618Z,5.03
2022-08-07T20:00:53.022Z,4.57
2022-08-07T20:03:35.209Z,4.72
2022-08-07T20:06:06.102Z,5.00
2022-08-07T20:08:33.933Z,4.97
2022-08-07T20:11:10.098Z,4.78
2022-08-07T20:13:56.067Z,5.00
2022-08-07T20:16:35.247Z,4.32
2022-08-07T20:19:10.595Z,4.37
2022-08-07T20:21:48.430Z,3.72
2022-08-07T20:24:52.349Z,2.72
2022-08-07T20:27:45.890Z,2.50
2022-08-07T20:30:14.546Z,2.40
2022-08-07T20:32:48.780Z,2.78
2022-08-07T20:35:21.959Z,3.12
2022-08-07T20:37:58.583Z,3.20
2022-08-07T20:40:31.446Z,3.12
2022-08-07T20:43:00.977Z,3.20
2022-08-07T20:46:24.470Z,5.12
2022-08-07T20:49:59.872Z,5.25
2022-08-07T20:52:51.118Z,5.70
2022-08-07T20:55:23.992Z,6.37
2022-08-07T20:58:19.251Z,6.53
2022-08-07T21:00:51.243Z,6.20
2022-08-07T21:03:25.768Z,6.20
2022-08-07T21:06:21.538Z,6.50
2022-08-07T21:09:13.603Z,6.30
2022-08-07T21:11:51.041Z,6.30
2022-08-07T21:14:33.670Z,5.75
2022-08-07T21:18:03.444Z,4.87
2022-08-07T21:20:35.880Z,4.55
2022-08-07T21:23:15.532Z,4.20
2022-08-07T21:26:34.799Z,3.62
2022-08-07T21:29:07.235Z,3.30
2022-08-07T21:32:46.625Z,3.30
2022-08-07T21:38:55.411Z,3.00
2022-08-07T21:41:52.283Z,2.87
2022-08-07T21:46:07.959Z,2.70
2022-08-07T21:48:56.767Z,2.60
2022-08-07T21:52:11.906Z,2.80
2022-08-07T21:54:55.813Z,2.83
2022-08-07T21:59:14.242Z,2.87
2022-08-07T22:02:45.347Z,2.70
2022-08-07T22:05:43.881Z,2.50
2022-08-07T22:08:12.058Z,2.42
2022-08-07T22:10:43.265Z,2.50
2022-08-07T22:13:13.895Z,2.60
2022-08-07T22:16:40.142Z,2.72
2022-08-07T22:20:00.436Z,2.97
2022-08-07T22:23:57.450Z,2.90
2022-08-07T22:26:33.230Z,2.92
2022-08-07T22:30:59.285Z,3.62
2022-08-07T22:33:52.766Z,3.37
2022-08-07T22:36:42.205Z,3.87
2022-08-07T22:40:39.059Z,3.45
2022-08-07T22:44:24.029Z,3.72
2022-08-07T22:47:52.103Z,3.92
2022-08-07T22:56:49.505Z,4.22
2022-08-07T23:01:24.444Z,3.20
2022-08-07T23:06:07.148Z,3.35
2022-08-07T23:10:00.964Z,2.97
2022-08-07T23:12:59.028Z,2.87
2022-08-07T23:22:25.829Z,3.45
2022-08-07T23:25:29.462Z,3.03
2022-08-07T23:28:35.034Z,3.65
2022-08-07T23:31:18.607Z,3.60
2022-08-07T23:35:22.930Z,3.17
2022-08-07T23:39:43.244Z,3.12
2022-08-07T23:42:38.262Z,2.75
2022-08-07T23:46:54.188Z,3.12
2022-08-07T23:53:08.845Z,3.58
2022-08-07T23:55:57.603Z,3.80
2022-08-07T23:58:36.263Z,3.17
